createdAt,value
2023-03-05T00:01:16.409Z,77
2023-03-05T00:04:16.413Z,77
2023-03-05T00:07:16.399Z,77
2023-03-05T00:10:16.407Z,77
2023-03-05T00:13:16.417Z,77
2023-03-05T00:16:16.484Z,77
2023-03-05T00:22:16.405Z,77
2023-03-05T00:25:16.394Z,77
2023-03-05T00:28:16.399Z,76
2023-03-05T00:31:16.469Z,76
2023-03-05T00:34:16.396Z,76
2023-03-05T00:37:16.407Z,76
2023-03-05T00:40:16.490Z,76
2023-03-05T00:43:16.409Z,76
2023-03-05T00:46:16.505Z,76
2023-03-05T00:49:16.404Z,76
2023-03-05T00:52:16.394Z,76
2023-03-05T00:55:16.422Z,76
2023-03-05T00:58:16.400Z,76
2023-03-05T01:04:16.383Z,76
2023-03-05T01:07:16.365Z,76
2023-03-05T01:10:16.360Z,76
2023-03-05T01:13:16.380Z,76
2023-03-05T01:16:16.477Z,76
2023-03-05T01:19:16.375Z,76
2023-03-05T01:22:16.362Z,76
2023-03-05T01:25:16.357Z,76
2023-03-05T01:28:16.354Z,76
2023-03-05T01:31:16.376Z,75
2023-03-05T01:34:16.350Z,75
2023-03-05T01:37:16.348Z,75
2023-03-05T01:40:16.343Z,75
2023-03-05T01:43:16.351Z,75
2023-03-05T01:46:16.353Z,75
2023-03-05T01:49:16.356Z,75
2023-03-05T01:52:16.345Z,75
2023-03-05T01:55:16.337Z,75
2023-03-05T01:58:16.358Z,75
2023-03-05T02:01:16.421Z,75
2023-03-05T02:04:16.370Z,75
2023-03-05T02:07:16.342Z,75
2023-03-05T02:10:16.341Z,75
2023-03-05T02:13:16.344Z,75
2023-03-05T02:19:16.395Z,75
2023-03-05T02:22:16.361Z,75
2023-03-05T02:25:16.357Z,75
2023-03-05T02:28:16.440Z,75
2023-03-05T02:31:16.488Z,75
2023-03-05T02:34:16.353Z,75
2023-03-05T02:37:16.340Z,75
2023-03-05T02:40:16.349Z,75
2023-03-05T02:43:16.353Z,75
2023-03-05T02:49:16.326Z,75
2023-03-05T02:52:16.351Z,75
2023-03-05T02:55:16.347Z,74
2023-03-05T02:58:16.363Z,74
2023-03-05T03:01:16.367Z,74
2023-03-05T03:04:16.337Z,74
2023-03-05T03:07:16.337Z,74
2023-03-05T03:10:16.343Z,74
2023-03-05T03:13:16.336Z,74
2023-03-05T03:16:16.332Z,74
2023-03-05T03:19:16.353Z,74
2023-03-05T03:22:16.338Z,74
2023-03-05T03:25:16.355Z,74
2023-03-05T03:28:16.336Z,74
2023-03-05T03:34:16.345Z,74
2023-03-05T03:37:16.322Z,74
2023-03-05T03:40:16.329Z,74
2023-03-05T03:43:16.332Z,74
2023-03-05T03:46:16.402Z,74
2023-03-05T03:49:16.322Z,74
2023-03-05T03:52:16.316Z,74
2023-03-05T03:55:16.324Z,74
2023-03-05T03:58:16.324Z,74
2023-03-05T04:01:16.317Z,74
2023-03-05T04:04:16.410Z,74
2023-03-05T04:07:16.316Z,74
2023-03-05T04:10:16.319Z,74
2023-03-05T04:13:16.330Z,74
2023-03-05T04:16:16.333Z,74
2023-03-05T04:19:16.321Z,74
2023-03-05T04:22:16.309Z,74
2023-03-05T04:25:16.304Z,74
2023-03-05T04:28:16.301Z,74
2023-03-05T04:31:16.333Z,74
2023-03-05T04:34:16.299Z,74
2023-03-05T04:37:16.293Z,74
2023-03-05T04:43:16.288Z,74
2023-03-05T04:46:16.312Z,74
2023-03-05T04:49:16.286Z,74
2023-03-05T04:52:16.286Z,74
2023-03-05T04:55:16.294Z,74
2023-03-05T04:58:16.285Z,74
2023-03-05T05:01:16.274Z,74
2023-03-05T05:04:16.304Z,74
2023-03-05T05:07:16.281Z,74
2023-03-05T05:10:16.290Z,74
2023-03-05T05:13:16.282Z,74
2023-03-05T05:16:16.307Z,74
2023-03-05T05:19:16.372Z,74
2023-03-05T05:22:16.266Z,74
2023-03-05T05:25:16.273Z,74
2023-03-05T05:28:16.274Z,74
2023-03-05T05:31:16.297Z,74
2023-03-05T05:34:16.281Z,74
2023-03-05T05:37:16.270Z,74
2023-03-05T05:40:16.287Z,74
2023-03-05T05:43:16.290Z,74
2023-03-05T05:46:16.406Z,74
2023-03-05T05:49:16.292Z,74
2023-03-05T05:52:16.287Z,74
2023-03-05T05:55:16.283Z,74
2023-03-05T05:58:16.291Z,74
2023-03-05T06:01:16.267Z,74
2023-03-05T06:04:16.300Z,74
2023-03-05T06:07:16.260Z,73
2023-03-05T06:10:16.267Z,73
2023-03-05T06:13:16.260Z,73
2023-03-05T06:16:16.319Z,73
2023-03-05T06:19:16.265Z,73
2023-03-05T06:22:16.250Z,73
2023-03-05T06:25:16.255Z,73
2023-03-05T06:28:16.248Z,73
2023-03-05T06:31:16.299Z,73
2023-03-05T06:34:16.248Z,73
2023-03-05T06:37:16.252Z,73
2023-03-05T06:40:16.249Z,73
2023-03-05T06:43:16.238Z,73
2023-03-05T06:46:16.292Z,73
2023-03-05T06:49:16.241Z,73
2023-03-05T06:52:16.267Z,73
2023-03-05T06:55:16.238Z,73
2023-03-05T06:58:16.249Z,73
2023-03-05T07:01:16.273Z,73
2023-03-05T07:04:16.231Z,73
2023-03-05T07:07:16.235Z,73
2023-03-05T07:10:16.236Z,73
2023-03-05T07:13:16.226Z,73
2023-03-05T07:16:16.248Z,73
2023-03-05T07:19:16.228Z,73
2023-03-05T07:22:16.223Z,73
2023-03-05T07:25:16.218Z,73
2023-03-05T07:28:16.222Z,73
2023-03-05T07:31:16.297Z,73
2023-03-05T07:34:16.223Z,73
2023-03-05T07:37:16.219Z,73
2023-03-05T07:40:16.229Z,73
2023-03-05T07:43:16.243Z,73
2023-03-05T07:46:16.350Z,73
2023-03-05T07:49:16.228Z,73
2023-03-05T07:52:16.261Z,73
2023-03-05T07:55:16.216Z,73
2023-03-05T07:58:16.214Z,73
2023-03-05T08:01:16.225Z,73
2023-03-05T08:04:16.253Z,73
2023-03-05T08:07:16.278Z,73
2023-03-05T08:10:16.229Z,73
2023-03-05T08:13:16.234Z,73
2023-03-05T08:16:16.311Z,73
2023-03-05T08:19:16.232Z,73
2023-03-05T08:22:16.223Z,73
2023-03-05T08:25:16.207Z,73
2023-03-05T08:28:16.221Z,73
2023-03-05T08:31:16.281Z,73
2023-03-05T08:34:16.211Z,73
2023-03-05T08:37:16.213Z,73
2023-03-05T08:40:16.210Z,73
2023-03-05T08:43:16.219Z,73
2023-03-05T08:46:16.243Z,73
2023-03-05T08:49:16.206Z,73
2023-03-05T08:52:16.206Z,73
2023-03-05T08:55:16.200Z,73
2023-03-05T08:58:16.221Z,73
2023-03-05T09:01:16.202Z,73
2023-03-05T09:04:16.225Z,73
2023-03-05T09:07:16.213Z,73
2023-03-05T09:10:16.208Z,73
2023-03-05T09:13:16.217Z,73
2023-03-05T09:16:16.278Z,73
2023-03-05T09:19:16.226Z,73
2023-03-05T09:22:16.212Z,73
2023-03-05T09:25:16.220Z,73
2023-03-05T09:28:16.213Z,73
2023-03-05T09:31:16.300Z,73
2023-03-05T09:34:16.215Z,73
2023-03-05T09:37:16.198Z,73
2023-03-05T09:40:16.195Z,73
2023-03-05T09:43:16.216Z,73
2023-03-05T09:46:16.234Z,73
2023-03-05T09:49:16.246Z,73
2023-03-05T09:52:16.187Z,73
2023-03-05T09:55:16.201Z,73
2023-03-05T09:58:16.213Z,73
2023-03-05T10:01:16.188Z,73
2023-03-05T10:04:16.253Z,72
2023-03-05T10:07:16.200Z,72
2023-03-05T10:10:16.188Z,72
2023-03-05T10:13:16.203Z,72
2023-03-05T10:16:16.192Z,72
2023-03-05T10:19:16.217Z,72
2023-03-05T10:22:16.194Z,72
2023-03-05T10:25:16.184Z,72
2023-03-05T10:28:16.186Z,72
2023-03-05T10:31:16.230Z,72
2023-03-05T10:34:16.218Z,72
2023-03-05T10:37:16.205Z,72
2023-03-05T10:40:16.193Z,71
2023-03-05T10:43:16.198Z,71
2023-03-05T10:46:16.219Z,71
2023-03-05T10:49:16.215Z,70
2023-03-05T10:55:16.197Z,70
2023-03-05T10:58:16.217Z,70
2023-03-05T11:01:16.178Z,70
2023-03-05T11:04:16.196Z,70
2023-03-05T11:07:16.218Z,70
2023-03-05T11:10:16.180Z,70
2023-03-05T11:13:16.189Z,70
2023-03-05T11:16:16.220Z,70
2023-03-05T11:19:16.332Z,70
2023-03-05T11:22:16.201Z,70
2023-03-05T11:28:24.091Z,70
2023-03-05T11:31:16.264Z,70
2023-03-05T11:34:16.193Z,71
2023-03-05T11:37:16.188Z,71
2023-03-05T11:40:16.197Z,71
2023-03-05T11:43:16.248Z,71
2023-03-05T11:49:16.195Z,71
2023-03-05T11:52:16.188Z,71
2023-03-05T11:55:16.177Z,71
2023-03-05T11:58:16.177Z,71
2023-03-05T12:01:16.180Z,71
2023-03-05T12:04:16.215Z,71
2023-03-05T12:07:16.178Z,71
2023-03-05T12:10:16.269Z,71
2023-03-05T12:13:16.180Z,71
2023-03-05T12:16:16.360Z,71
2023-03-05T12:19:18.355Z,71
2023-03-05T12:22:16.182Z,71
2023-03-05T12:25:16.182Z,71
2023-03-05T12:28:16.194Z,71
2023-03-05T12:34:16.181Z,71
2023-03-05T12:37:16.228Z,71
2023-03-05T12:40:16.172Z,71
2023-03-05T12:43:16.537Z,71
2023-03-05T12:46:16.174Z,71
2023-03-05T12:49:16.173Z,71
2023-03-05T12:52:16.176Z,71
2023-03-05T12:55:16.178Z,70
2023-03-05T12:58:16.169Z,70
2023-03-05T13:01:16.193Z,70
2023-03-05T13:04:16.181Z,70
2023-03-05T13:07:16.165Z,70
2023-03-05T13:10:16.162Z,70
2023-03-05T13:13:16.181Z,70
2023-03-05T13:19:16.159Z,70
2023-03-05T13:22:16.154Z,70
2023-03-05T13:25:16.161Z,69
2023-03-05T13:28:16.152Z,69
2023-03-05T13:31:16.181Z,69
2023-03-05T13:34:16.180Z,69
2023-03-05T13:37:16.184Z,69
2023-03-05T13:40:16.146Z,69
2023-03-05T13:43:16.142Z,69
2023-03-05T13:46:16.158Z,69
2023-03-05T13:49:16.906Z,69
2023-03-05T13:52:16.319Z,69
2023-03-05T13:58:16.134Z,69
2023-03-05T14:01:16.221Z,69
2023-03-05T14:04:16.535Z,69
2023-03-05T14:07:16.710Z,68
2023-03-05T14:10:16.836Z,69
2023-03-05T14:13:16.869Z,68
2023-03-05T14:16:16.185Z,68
2023-03-05T14:19:16.611Z,68
2023-03-05T14:22:16.164Z,68
2023-03-05T14:28:16.139Z,68
2023-03-05T14:31:16.221Z,68
2023-03-05T14:34:16.158Z,68
2023-03-05T14:37:16.179Z,68
2023-03-05T14:40:16.141Z,68
2023-03-05T14:43:16.135Z,68
2023-03-05T14:46:16.161Z,68
2023-03-05T14:49:16.161Z,68
2023-03-05T14:52:16.156Z,68
2023-03-05T14:55:16.144Z,68
2023-03-05T14:58:16.140Z,68
2023-03-05T15:01:16.153Z,68
2023-03-05T15:04:16.148Z,68
2023-03-05T15:07:16.137Z,68
2023-03-05T15:13:16.138Z,68
2023-03-05T15:16:16.176Z,68
2023-03-05T15:19:16.195Z,68
2023-03-05T15:22:16.121Z,69
2023-03-05T15:25:16.128Z,68
2023-03-05T15:28:16.123Z,68
2023-03-05T15:31:16.228Z,68
2023-03-05T15:34:16.137Z,68
2023-03-05T15:37:16.135Z,68
2023-03-05T15:40:16.134Z,68
2023-03-05T15:43:16.122Z,68
2023-03-05T15:46:16.184Z,68
2023-03-05T15:49:16.126Z,68
2023-03-05T15:52:16.107Z,68
2023-03-05T15:55:16.114Z,68
2023-03-05T15:58:16.113Z,68
2023-03-05T16:01:16.207Z,68
2023-03-05T16:04:16.127Z,68
2023-03-05T16:07:16.112Z,68
2023-03-05T16:10:16.122Z,68
2023-03-05T16:13:16.127Z,69
2023-03-05T16:16:16.151Z,69
2023-03-05T16:19:16.137Z,69
2023-03-05T16:22:16.112Z,69
2023-03-05T16:25:16.107Z,69
2023-03-05T16:28:16.116Z,69
2023-03-05T16:31:16.161Z,69
2023-03-05T16:40:16.112Z,69
2023-03-05T16:43:16.109Z,69
2023-03-05T16:46:16.100Z,69
2023-03-05T16:49:16.114Z,69
2023-03-05T16:52:18.927Z,69
2023-03-05T16:55:16.118Z,69
2023-03-05T16:58:16.140Z,69
2023-03-05T17:01:16.183Z,69
2023-03-05T17:04:16.152Z,69
2023-03-05T17:07:16.088Z,69
2023-03-05T17:10:16.104Z,69
2023-03-05T17:13:16.083Z,69
2023-03-05T17:16:16.108Z,69
2023-03-05T17:19:16.164Z,69
2023-03-05T17:22:16.127Z,69
2023-03-05T17:25:16.114Z,69
2023-03-05T17:28:16.098Z,69
2023-03-05T17:31:16.133Z,69
2023-03-05T17:34:16.773Z,69
2023-03-05T17:37:16.102Z,69
2023-03-05T17:40:16.102Z,69
2023-03-05T17:43:16.102Z,69
2023-03-05T17:46:16.099Z,69
2023-03-05T17:49:16.122Z,69
2023-03-05T17:52:16.089Z,69
2023-03-05T17:55:16.100Z,69
2023-03-05T17:58:16.090Z,69
2023-03-05T18:01:16.128Z,69
2023-03-05T18:04:16.126Z,69
2023-03-05T18:07:16.083Z,69
2023-03-05T18:10:16.093Z,69
2023-03-05T18:13:16.079Z,69
2023-03-05T18:16:16.095Z,69
2023-03-05T18:19:16.093Z,70
2023-03-05T18:22:16.092Z,70
2023-03-05T18:25:16.089Z,70
2023-03-05T18:28:16.083Z,70
2023-03-05T18:31:16.079Z,70
2023-03-05T18:34:16.091Z,70
2023-03-05T18:37:16.122Z,70
2023-03-05T18:40:18.765Z,70
2023-03-05T18:43:16.105Z,70
2023-03-05T18:46:16.129Z,70
2023-03-05T18:49:16.089Z,70
2023-03-05T18:52:16.118Z,70
2023-03-05T18:55:16.065Z,70
2023-03-05T18:58:16.125Z,70
2023-03-05T19:01:16.126Z,70
2023-03-05T19:04:16.225Z,70
2023-03-05T19:07:16.095Z,70
2023-03-05T19:13:16.084Z,70
2023-03-05T19:16:16.062Z,70
2023-03-05T19:19:16.078Z,70
2023-03-05T19:22:16.063Z,70
2023-03-05T19:25:16.074Z,70
2023-03-05T19:28:16.085Z,70
2023-03-05T19:31:16.106Z,70
2023-03-05T19:34:16.089Z,70
2023-03-05T19:37:16.061Z,70
2023-03-05T19:40:16.071Z,70
2023-03-05T19:43:16.079Z,70
2023-03-05T19:46:16.089Z,70
2023-03-05T19:49:16.073Z,70
2023-03-05T19:52:16.069Z,70
2023-03-05T19:55:16.071Z,70
2023-03-05T19:58:16.062Z,70
2023-03-05T20:01:16.108Z,70
2023-03-05T20:04:16.076Z,70
2023-03-05T20:07:16.065Z,70
2023-03-05T20:10:16.070Z,70
2023-03-05T20:13:16.067Z,70
2023-03-05T20:16:16.075Z,70
2023-03-05T20:19:16.115Z,70
2023-03-05T20:22:16.064Z,70
2023-03-05T20:25:16.070Z,70
2023-03-05T20:28:16.060Z,70
2023-03-05T20:31:16.129Z,70
2023-03-05T20:34:16.068Z,70
2023-03-05T20:40:16.071Z,70
2023-03-05T20:43:16.052Z,70
2023-03-05T20:46:16.141Z,70
2023-03-05T20:49:16.067Z,70
2023-03-05T20:52:16.048Z,70
2023-03-05T20:55:16.071Z,70
2023-03-05T20:58:16.052Z,70
2023-03-05T21:01:16.057Z,70
2023-03-05T21:04:16.109Z,70
2023-03-05T21:07:16.072Z,70
2023-03-05T21:10:16.052Z,70
2023-03-05T21:13:16.048Z,70
2023-03-05T21:16:16.095Z,70
2023-03-05T21:19:16.258Z,70
2023-03-05T21:22:16.037Z,70
2023-03-05T21:25:16.038Z,70
2023-03-05T21:28:16.039Z,70
2023-03-05T21:31:16.059Z,70
2023-03-05T21:34:16.073Z,70
2023-03-05T21:37:16.032Z,70
2023-03-05T21:40:16.034Z,70
2023-03-05T21:43:16.034Z,70
2023-03-05T21:46:16.076Z,70
2023-03-05T21:49:16.034Z,70
2023-03-05T21:52:16.038Z,71
2023-03-05T21:55:16.027Z,71
2023-03-05T21:58:16.027Z,71
2023-03-05T22:01:16.148Z,71
2023-03-05T22:04:16.052Z,71
2023-03-05T22:07:16.029Z,71
2023-03-05T22:10:16.024Z,71
2023-03-05T22:13:16.030Z,71
2023-03-05T22:16:16.036Z,71
2023-03-05T22:19:16.014Z,71
2023-03-05T22:22:16.013Z,71
2023-03-05T22:25:16.020Z,71
2023-03-05T22:28:16.008Z,71
2023-03-05T22:31:16.013Z,71
2023-03-05T22:34:16.026Z,71
2023-03-05T22:37:16.014Z,71
2023-03-05T22:40:16.036Z,71
2023-03-05T22:43:16.009Z,71
2023-03-05T22:46:16.049Z,71
2023-03-05T22:49:16.002Z,71
2023-03-05T22:52:16.010Z,71
2023-03-05T22:55:16.023Z,71
2023-03-05T22:58:16.009Z,71
2023-03-05T23:01:16.009Z,71
2023-03-05T23:04:16.049Z,71
2023-03-05T23:07:16.004Z,71
2023-03-05T23:10:16.053Z,71
2023-03-05T23:13:16.051Z,71
2023-03-05T23:16:16.076Z,71
2023-03-05T23:19:16.027Z,71
2023-03-05T23:22:16.025Z,71
2023-03-05T23:25:16.123Z,71
2023-03-05T23:28:16.026Z,71
2023-03-05T23:31:16.084Z,71
2023-03-05T23:34:16.027Z,71
2023-03-05T23:37:16.030Z,71
2023-03-05T23:40:16.022Z,71
2023-03-05T23:43:16.016Z,71
2023-03-05T23:46:16.073Z,71
2023-03-05T23:49:16.041Z,71
2023-03-05T23:52:16.004Z,71
2023-03-05T23:55:16.009Z,71
2023-03-05T23:58:16.021Z,71
